createdAt,value
2018-04-24T00:00:54.196Z,11.29
2018-04-24T00:01:54.755Z,11.30
2018-04-24T00:02:55.313Z,11.26
2018-04-24T00:03:55.853Z,11.26
2018-04-24T00:04:56.397Z,11.22
2018-04-24T00:05:56.949Z,11.22
2018-04-24T00:06:57.483Z,11.24
2018-04-24T00:07:58.034Z,11.18
2018-04-24T00:08:58.581Z,11.24
2018-04-24T00:09:59.123Z,11.15
2018-04-24T00:10:59.671Z,11.21
2018-04-24T00:12:00.219Z,11.11
2018-04-24T00:13:00.772Z,11.08
2018-04-24T00:14:01.335Z,10.97
2018-04-24T00:15:01.868Z,10.97
2018-04-24T00:16:02.414Z,10.94
2018-04-24T00:17:02.958Z,10.93
2018-04-24T00:18:03.504Z,10.81
2018-04-24T00:19:04.052Z,10.87
2018-04-24T00:20:04.603Z,10.82
2018-04-24T00:21:05.152Z,10.91
2018-04-24T00:22:05.703Z,10.75
2018-04-24T00:23:06.243Z,10.75
2018-04-24T00:24:06.801Z,10.83
2018-04-24T00:25:07.341Z,10.83
2018-04-24T00:26:07.939Z,10.82
2018-04-24T00:27:08.433Z,10.91
2018-04-24T00:28:08.977Z,10.79
2018-04-24T00:29:09.523Z,10.78
2018-04-24T00:30:10.072Z,10.75
2018-04-24T00:31:10.619Z,10.78
2018-04-24T00:32:11.169Z,10.78
2018-04-24T00:33:11.720Z,10.64
2018-04-24T00:34:12.265Z,10.63
2018-04-24T00:35:12.811Z,10.60
2018-04-24T00:36:13.358Z,10.67
2018-04-24T00:37:13.907Z,10.64
2018-04-24T00:38:14.455Z,10.63
2018-04-24T00:39:15.000Z,10.63
2018-04-24T00:40:15.547Z,10.51
2018-04-24T00:41:16.089Z,10.49
2018-04-24T00:42:16.632Z,10.47
2018-04-24T00:43:17.181Z,10.45
2018-04-24T00:44:17.722Z,10.44
2018-04-24T00:45:18.271Z,10.39
2018-04-24T00:46:18.811Z,10.32
2018-04-24T00:47:19.354Z,10.45
2018-04-24T00:48:19.895Z,10.41
2018-04-24T00:49:20.444Z,10.39
2018-04-24T00:50:20.986Z,10.51
2018-04-24T00:51:21.529Z,10.39
2018-04-24T00:52:22.077Z,10.41
2018-04-24T00:53:22.623Z,10.39
2018-04-24T00:54:23.163Z,10.39
2018-04-24T00:55:23.706Z,10.41
2018-04-24T00:56:24.246Z,10.41
2018-04-24T00:57:24.790Z,10.37
2018-04-24T00:58:25.339Z,10.39
2018-04-24T00:59:25.886Z,10.39
2018-04-24T01:00:26.436Z,10.35
2018-04-24T01:01:26.983Z,10.35
2018-04-24T01:02:27.533Z,10.31
2018-04-24T01:03:28.081Z,10.37
2018-04-24T01:04:28.626Z,10.29
2018-04-24T01:05:29.170Z,10.35
2018-04-24T01:06:29.716Z,10.34
2018-04-24T01:07:30.264Z,10.35
2018-04-24T01:08:30.810Z,10.32
2018-04-24T01:09:31.357Z,10.20
2018-04-24T01:10:31.903Z,10.27
2018-04-24T01:11:32.449Z,10.24
2018-04-24T01:12:32.994Z,10.35
2018-04-24T01:13:33.539Z,10.37
2018-04-24T01:14:34.083Z,10.29
2018-04-24T01:15:34.627Z,10.24
2018-04-24T01:16:35.174Z,10.32
2018-04-24T01:17:35.714Z,10.34
2018-04-24T01:18:36.263Z,10.23
2018-04-24T01:19:36.811Z,10.19
2018-04-24T01:20:37.350Z,10.16
2018-04-24T01:21:37.896Z,10.17
2018-04-24T01:22:38.509Z,10.14
2018-04-24T01:23:38.981Z,10.19
2018-04-24T01:24:39.523Z,10.17
2018-04-24T01:25:40.069Z,10.20
2018-04-24T01:26:40.616Z,10.17
2018-04-24T01:27:41.164Z,10.20
2018-04-24T01:28:41.714Z,10.13
2018-04-24T01:29:42.254Z,10.19
2018-04-24T01:30:42.800Z,10.12
2018-04-24T01:31:43.349Z,10.19
2018-04-24T01:32:43.895Z,10.20
2018-04-24T01:33:44.437Z,10.16
2018-04-24T01:34:44.985Z,10.19
2018-04-24T01:35:45.537Z,10.14
2018-04-24T01:36:46.088Z,10.16
2018-04-24T01:37:46.633Z,10.20
2018-04-24T01:38:47.177Z,10.16
2018-04-24T01:39:47.724Z,10.14
2018-04-24T01:40:48.282Z,10.17
2018-04-24T01:41:48.828Z,10.20
2018-04-24T01:42:49.374Z,10.17
2018-04-24T01:43:49.916Z,10.08
2018-04-24T01:44:50.463Z,10.13
2018-04-24T01:45:51.013Z,10.16
2018-04-24T01:46:51.558Z,10.16
2018-04-24T01:47:52.107Z,10.17
2018-04-24T01:48:52.645Z,10.20
2018-04-24T01:49:53.196Z,10.22
2018-04-24T01:50:53.748Z,10.16
2018-04-24T01:51:54.293Z,10.20
2018-04-24T01:52:54.837Z,10.23
2018-04-24T01:53:55.384Z,10.17
2018-04-24T01:54:55.931Z,10.14
2018-04-24T01:55:56.474Z,10.16
2018-04-24T01:56:57.023Z,10.23
2018-04-24T01:57:57.569Z,10.14
2018-04-24T01:58:58.117Z,10.19
2018-04-24T01:59:58.666Z,10.24
2018-04-24T02:00:59.211Z,10.09
2018-04-24T02:01:59.755Z,10.17
2018-04-24T02:03:00.303Z,10.13
2018-04-24T02:04:00.850Z,10.16
2018-04-24T02:05:01.391Z,10.01
2018-04-24T02:06:01.928Z,10.08
2018-04-24T02:07:02.475Z,10.13
2018-04-24T02:08:03.018Z,10.06
2018-04-24T02:09:03.560Z,10.17
2018-04-24T02:10:04.099Z,10.05
2018-04-24T02:11:04.649Z,10.08
2018-04-24T02:12:05.197Z,10.08
2018-04-24T02:13:05.743Z,10.01
2018-04-24T02:14:06.284Z,10.02
2018-04-24T02:15:06.833Z,9.95
2018-04-24T02:16:07.376Z,9.99
2018-04-24T02:17:07.922Z,9.96
2018-04-24T02:18:08.462Z,9.96
2018-04-24T02:19:09.017Z,9.99
2018-04-24T02:20:09.558Z,10.02
2018-04-24T02:21:10.101Z,9.95
2018-04-24T02:22:10.650Z,10.02
2018-04-24T02:23:11.197Z,10.01
2018-04-24T02:24:11.748Z,9.95
2018-04-24T02:25:12.296Z,9.95
2018-04-24T02:26:12.845Z,9.86
2018-04-24T02:27:13.393Z,9.95
2018-04-24T02:28:13.937Z,9.94
2018-04-24T02:29:14.481Z,9.87
2018-04-24T02:30:15.029Z,9.86
2018-04-24T02:31:15.574Z,9.79
2018-04-24T02:32:16.120Z,9.79
2018-04-24T02:33:16.665Z,9.88
2018-04-24T02:34:17.203Z,9.86
2018-04-24T02:35:17.746Z,9.91
2018-04-24T02:36:18.289Z,9.90
2018-04-24T02:37:18.835Z,9.79
2018-04-24T02:38:19.376Z,9.80
2018-04-24T02:39:19.929Z,9.83
2018-04-24T02:40:20.582Z,9.72
2018-04-24T02:41:21.016Z,9.72
2018-04-24T02:42:21.555Z,9.76
2018-04-24T02:43:22.096Z,9.76
2018-04-24T02:44:22.644Z,9.71
2018-04-24T02:45:23.197Z,9.76
2018-04-24T02:46:23.736Z,9.76
2018-04-24T02:47:24.282Z,9.71
2018-04-24T02:48:24.828Z,9.63
2018-04-24T02:49:25.402Z,9.62
2018-04-24T02:50:25.909Z,9.66
2018-04-24T02:51:26.458Z,9.69
2018-04-24T02:52:26.997Z,9.68
2018-04-24T02:53:27.542Z,9.62
2018-04-24T02:54:28.088Z,9.63
2018-04-24T02:55:28.633Z,9.62
2018-04-24T02:56:29.183Z,9.63
2018-04-24T02:57:29.730Z,9.59
2018-04-24T02:58:30.267Z,9.56
2018-04-24T02:59:30.814Z,9.48
2018-04-24T03:00:31.357Z,9.58
2018-04-24T03:01:31.902Z,9.56
2018-04-24T03:02:32.453Z,9.53
2018-04-24T03:03:32.993Z,9.48
2018-04-24T03:04:33.534Z,9.53
2018-04-24T03:05:34.083Z,9.54
2018-04-24T03:06:34.632Z,9.51
2018-04-24T03:07:35.174Z,9.54
2018-04-24T03:08:35.719Z,9.44
2018-04-24T03:09:36.263Z,9.44
2018-04-24T03:10:36.809Z,9.51
2018-04-24T03:11:37.357Z,9.51
2018-04-24T03:12:37.904Z,9.53
2018-04-24T03:13:38.444Z,9.53
2018-04-24T03:14:38.991Z,9.47
2018-04-24T03:15:39.529Z,9.44
2018-04-24T03:16:40.074Z,9.38
2018-04-24T03:17:40.619Z,9.47
2018-04-24T03:18:41.169Z,9.50
2018-04-24T03:19:41.720Z,9.45
2018-04-24T03:20:42.261Z,9.48
2018-04-24T03:21:42.812Z,9.51
2018-04-24T03:22:43.355Z,9.50
2018-04-24T03:23:43.899Z,9.50
2018-04-24T03:24:44.441Z,9.54
2018-04-24T03:25:44.982Z,9.48
2018-04-24T03:26:45.520Z,9.47
2018-04-24T03:27:46.066Z,9.48
2018-04-24T03:28:46.611Z,9.47
2018-04-24T03:29:47.164Z,9.50
2018-04-24T03:30:47.704Z,9.43
2018-04-24T03:31:48.241Z,9.45
2018-04-24T03:32:48.836Z,9.48
2018-04-24T03:33:49.381Z,9.48
2018-04-24T03:34:49.929Z,9.48
2018-04-24T03:35:50.477Z,9.48
2018-04-24T03:36:51.024Z,9.58
2018-04-24T03:37:51.578Z,9.54
2018-04-24T03:38:52.131Z,9.58
2018-04-24T03:39:52.670Z,9.36
2018-04-24T03:40:53.211Z,9.38
2018-04-24T03:41:53.768Z,9.36
2018-04-24T03:42:54.319Z,9.33
2018-04-24T03:43:54.874Z,9.47
2018-04-24T03:44:55.417Z,9.36
2018-04-24T03:45:55.961Z,9.38
2018-04-24T03:46:56.500Z,9.41
2018-04-24T03:47:57.047Z,9.53
2018-04-24T03:48:57.586Z,9.53
2018-04-24T03:49:58.129Z,9.43
2018-04-24T03:50:58.671Z,9.48
2018-04-24T03:51:59.214Z,9.45
2018-04-24T03:52:59.761Z,9.50
2018-04-24T03:54:00.310Z,9.47
2018-04-24T03:55:00.851Z,9.43
2018-04-24T03:56:01.393Z,9.35
2018-04-24T03:57:01.940Z,9.44
2018-04-24T03:58:02.490Z,9.41
2018-04-24T03:59:03.036Z,9.43
2018-04-24T04:00:03.585Z,9.38
2018-04-24T04:01:04.127Z,9.36
2018-04-24T04:02:04.673Z,9.35
2018-04-24T04:03:05.221Z,9.28
2018-04-24T04:04:05.771Z,9.44
2018-04-24T04:05:06.315Z,9.45
2018-04-24T04:06:06.863Z,9.53
2018-04-24T04:07:07.410Z,9.35
2018-04-24T04:08:07.951Z,9.43
2018-04-24T04:09:08.500Z,9.41
2018-04-24T04:10:09.045Z,9.36
2018-04-24T04:11:09.590Z,9.35
2018-04-24T04:12:10.130Z,9.20
2018-04-24T04:13:10.681Z,9.25
2018-04-24T04:14:11.233Z,9.28
2018-04-24T04:15:11.787Z,9.33
2018-04-24T04:16:12.383Z,9.29
2018-04-24T04:17:12.878Z,9.28
2018-04-24T04:18:13.430Z,9.26
2018-04-24T04:19:13.982Z,9.25
2018-04-24T04:20:14.521Z,9.28
2018-04-24T04:21:15.069Z,9.28
2018-04-24T04:22:15.624Z,9.33
2018-04-24T04:23:16.166Z,9.30
2018-04-24T04:24:16.709Z,9.41
2018-04-24T04:25:17.258Z,9.28
2018-04-24T04:26:17.814Z,9.36
2018-04-24T04:27:18.359Z,9.48
2018-04-24T04:28:18.911Z,9.45
2018-04-24T04:29:19.460Z,9.53
2018-04-24T04:30:20.007Z,9.50
2018-04-24T04:31:20.549Z,9.53
2018-04-24T04:32:21.104Z,9.53
2018-04-24T04:33:21.641Z,9.45
2018-04-24T04:34:22.189Z,9.48
2018-04-24T04:35:22.732Z,9.59
2018-04-24T04:36:23.278Z,9.48
2018-04-24T04:37:23.831Z,9.61
2018-04-24T04:38:24.375Z,9.61
2018-04-24T04:39:24.943Z,9.59
2018-04-24T04:40:25.476Z,9.65
2018-04-24T04:41:26.025Z,9.63
2018-04-24T04:42:26.568Z,9.72
2018-04-24T04:43:27.114Z,9.59
2018-04-24T04:44:27.667Z,9.68
2018-04-24T04:45:28.218Z,9.72
2018-04-24T04:46:28.765Z,9.72
2018-04-24T04:47:29.313Z,9.72
2018-04-24T04:48:29.865Z,9.66
2018-04-24T04:49:30.415Z,9.71
2018-04-24T04:50:30.963Z,9.74
2018-04-24T04:51:31.512Z,9.72
2018-04-24T04:52:32.053Z,9.80
2018-04-24T04:53:32.606Z,9.72
2018-04-24T04:54:33.145Z,9.91
2018-04-24T04:55:33.694Z,9.84
2018-04-24T04:56:34.244Z,9.90
2018-04-24T04:57:34.789Z,9.84
2018-04-24T04:58:35.333Z,9.94
2018-04-24T04:59:35.880Z,9.96
2018-04-24T05:00:36.426Z,9.95
2018-04-24T05:01:36.991Z,9.95
2018-04-24T05:02:37.532Z,10.01
2018-04-24T05:03:38.085Z,10.05
2018-04-24T05:04:38.660Z,10.08
2018-04-24T05:05:39.182Z,10.08
2018-04-24T05:06:39.734Z,10.09
2018-04-24T05:07:40.288Z,10.04
2018-04-24T05:08:40.844Z,10.08
2018-04-24T05:09:41.398Z,10.06
2018-04-24T05:10:41.941Z,10.01
2018-04-24T05:11:42.496Z,10.09
2018-04-24T05:12:43.041Z,10.20
2018-04-24T05:13:43.595Z,10.14
2018-04-24T05:14:44.138Z,10.13
2018-04-24T05:15:44.687Z,10.24
2018-04-24T05:16:45.239Z,10.19
2018-04-24T05:17:45.795Z,10.34
2018-04-24T05:18:46.346Z,10.22
2018-04-24T05:19:46.901Z,10.19
2018-04-24T05:20:47.455Z,10.32
2018-04-24T05:21:48.009Z,10.32
2018-04-24T05:22:48.563Z,10.37
2018-04-24T05:23:49.117Z,10.37
2018-04-24T05:24:49.673Z,10.41
2018-04-24T05:25:50.226Z,10.38
2018-04-24T05:26:50.781Z,10.44
2018-04-24T05:27:51.333Z,10.54
2018-04-24T05:28:51.893Z,10.51
2018-04-24T05:29:52.438Z,10.47
2018-04-24T05:30:52.987Z,10.51
2018-04-24T05:31:53.546Z,10.61
2018-04-24T05:32:54.102Z,10.61
2018-04-24T05:33:54.653Z,10.67
2018-04-24T05:34:55.205Z,10.78
2018-04-24T05:35:55.768Z,10.91
2018-04-24T05:36:56.315Z,10.83
2018-04-24T05:37:56.871Z,10.82
2018-04-24T05:38:57.422Z,10.93
2018-04-24T05:39:57.978Z,10.87
2018-04-24T05:40:58.528Z,11.04
2018-04-24T05:41:59.077Z,11.04
2018-04-24T05:42:59.625Z,11.15
2018-04-24T05:44:00.173Z,11.22
2018-04-24T05:45:00.724Z,11.26
2018-04-24T05:46:01.283Z,11.39
2018-04-24T05:47:01.831Z,11.32
2018-04-24T05:48:02.386Z,11.32
2018-04-24T05:49:02.942Z,11.44
2018-04-24T05:50:03.505Z,11.30
2018-04-24T05:51:04.050Z,11.26
2018-04-24T05:52:04.600Z,11.39
2018-04-24T05:53:05.240Z,11.37
2018-04-24T05:54:05.706Z,11.48
2018-04-24T05:55:06.265Z,11.45
2018-04-24T05:56:06.818Z,11.48
2018-04-24T05:57:07.378Z,11.51
2018-04-24T05:58:07.924Z,11.39
2018-04-24T05:59:08.473Z,11.52
2018-04-24T06:00:09.030Z,11.55
2018-04-24T06:01:09.583Z,11.55
2018-04-24T06:02:10.147Z,11.44
2018-04-24T06:03:10.722Z,11.58
2018-04-24T06:04:11.269Z,11.51
2018-04-24T06:05:11.815Z,11.67
2018-04-24T06:06:12.383Z,11.66
2018-04-24T06:07:12.934Z,11.73
2018-04-24T06:08:13.492Z,11.75
2018-04-24T06:09:14.054Z,11.83
2018-04-24T06:10:14.659Z,11.91
2018-04-24T06:11:15.217Z,11.93
2018-04-24T06:12:15.774Z,12.13
2018-04-24T06:13:16.332Z,12.27
2018-04-24T06:14:16.888Z,12.35
2018-04-24T06:15:17.449Z,12.35
2018-04-24T06:16:18.005Z,12.32
2018-04-24T06:17:18.562Z,12.55
2018-04-24T06:18:19.116Z,12.67
2018-04-24T06:19:19.671Z,12.83
2018-04-24T06:20:20.228Z,12.80
2018-04-24T06:21:20.786Z,12.68
2018-04-24T06:22:21.341Z,12.64
2018-04-24T06:23:21.895Z,12.83
2018-04-24T06:24:22.446Z,12.65
2018-04-24T06:25:23.018Z,12.83
2018-04-24T06:26:23.561Z,12.68
2018-04-24T06:27:24.115Z,12.79
2018-04-24T06:28:24.692Z,12.79
2018-04-24T06:29:25.225Z,12.86
2018-04-24T06:30:25.783Z,12.68
2018-04-24T06:31:26.336Z,12.62
2018-04-24T06:32:26.890Z,12.57
2018-04-24T06:33:27.447Z,12.61
2018-04-24T06:34:28.004Z,12.47
2018-04-24T06:35:28.560Z,12.53
2018-04-24T06:36:29.114Z,12.47
2018-04-24T06:37:29.666Z,12.39
2018-04-24T06:38:30.218Z,12.49
2018-04-24T06:39:30.777Z,12.52
2018-04-24T06:40:31.329Z,12.58
2018-04-24T06:41:31.892Z,12.61
2018-04-24T06:42:32.446Z,12.60
2018-04-24T06:43:32.999Z,12.58
2018-04-24T06:44:33.553Z,12.75
2018-04-24T06:45:34.113Z,12.71
2018-04-24T06:46:34.664Z,12.87
2018-04-24T06:47:35.219Z,12.77
2018-04-24T06:48:35.778Z,12.94
2018-04-24T06:49:36.337Z,12.98
2018-04-24T06:50:36.885Z,13.01
2018-04-24T06:51:37.445Z,13.18
2018-04-24T06:52:37.998Z,13.18
2018-04-24T06:53:38.551Z,13.19
2018-04-24T06:54:39.103Z,13.13
2018-04-24T06:55:39.659Z,13.19
2018-04-24T06:56:40.220Z,13.33
2018-04-24T06:57:40.795Z,13.57
2018-04-24T06:58:41.340Z,13.61
2018-04-24T06:59:41.901Z,13.74
2018-04-24T07:00:42.478Z,13.86
2018-04-24T07:01:43.021Z,14.05
2018-04-24T07:02:43.576Z,14.07
2018-04-24T07:03:44.137Z,14.25
2018-04-24T07:04:44.697Z,14.18
2018-04-24T07:05:45.258Z,14.33
2018-04-24T07:06:45.819Z,14.72
2018-04-24T07:07:46.382Z,14.86
2018-04-24T07:08:46.939Z,14.96
2018-04-24T07:09:47.502Z,14.69
2018-04-24T07:10:48.063Z,14.81
2018-04-24T07:11:48.625Z,14.96
2018-04-24T07:12:49.183Z,14.99
2018-04-24T07:13:49.744Z,14.85
2018-04-24T07:14:50.304Z,14.70
2018-04-24T07:15:50.856Z,14.55
2018-04-24T07:16:51.429Z,14.54
2018-04-24T07:17:51.969Z,14.51
2018-04-24T07:18:52.530Z,14.50
2018-04-24T07:19:53.087Z,14.51
2018-04-24T07:20:53.648Z,14.35
2018-04-24T07:21:54.209Z,14.52
2018-04-24T07:22:54.766Z,14.44
2018-04-24T07:23:55.327Z,14.57
2018-04-24T07:24:55.887Z,14.50
2018-04-24T07:25:56.440Z,14.72
2018-04-24T07:26:57.000Z,14.78
2018-04-24T07:27:57.562Z,14.96
2018-04-24T07:28:58.123Z,15.07
2018-04-24T07:29:58.696Z,15.06
2018-04-24T07:30:59.260Z,15.11
2018-04-24T07:31:59.821Z,15.36
2018-04-24T07:33:00.461Z,15.31
2018-04-24T07:34:00.937Z,15.17
2018-04-24T07:35:01.492Z,15.09
2018-04-24T07:36:02.057Z,15.06
2018-04-24T07:37:02.617Z,15.21
2018-04-24T07:38:03.209Z,15.19
2018-04-24T07:39:03.742Z,15.28
2018-04-24T07:40:04.297Z,15.32
2018-04-24T07:41:04.945Z,15.22
2018-04-24T07:42:05.413Z,15.19
2018-04-24T07:43:05.970Z,15.28
2018-04-24T07:44:06.527Z,15.34
2018-04-24T07:45:07.095Z,15.46
2018-04-24T07:46:07.650Z,15.49
2018-04-24T07:47:08.211Z,15.07
2018-04-24T07:48:08.773Z,15.01
2018-04-24T07:49:09.329Z,15.01
2018-04-24T07:50:09.938Z,14.91
2018-04-24T07:51:10.498Z,14.85
2018-04-24T07:52:11.058Z,14.88
2018-04-24T07:53:11.617Z,14.88
2018-04-24T07:54:12.179Z,14.82
2018-04-24T07:55:12.735Z,14.78
2018-04-24T07:56:13.297Z,14.70
2018-04-24T07:57:13.853Z,14.58
2018-04-24T07:58:14.469Z,14.73
2018-04-24T07:59:15.052Z,14.75
2018-04-24T08:00:15.544Z,14.60
2018-04-24T08:01:16.106Z,14.47
2018-04-24T08:02:16.667Z,14.35
2018-04-24T08:03:17.220Z,14.39
2018-04-24T08:04:17.780Z,14.29
2018-04-24T08:05:18.341Z,14.29
2018-04-24T08:06:18.920Z,14.27
2018-04-24T08:07:19.680Z,14.15
2018-04-24T08:08:20.243Z,14.25
2018-04-24T08:09:20.793Z,14.18
2018-04-24T08:10:21.370Z,14.25
2018-04-24T08:11:21.916Z,14.12
2018-04-24T08:12:22.477Z,14.05
2018-04-24T08:13:23.037Z,14.12
2018-04-24T08:14:23.592Z,14.08
2018-04-24T08:15:24.150Z,14.12
2018-04-24T08:16:24.707Z,14.19
2018-04-24T08:17:25.273Z,14.26
2018-04-24T08:18:25.835Z,14.18
2018-04-24T08:19:26.395Z,14.18
2018-04-24T08:20:26.954Z,14.00
2018-04-24T08:21:27.513Z,14.00
2018-04-24T08:22:28.067Z,14.05
2018-04-24T08:23:28.629Z,14.02
2018-04-24T08:24:29.177Z,14.05
2018-04-24T08:25:29.732Z,14.12
2018-04-24T08:26:30.286Z,14.12
2018-04-24T08:27:30.852Z,14.10
2018-04-24T08:28:31.419Z,14.18
2018-04-24T08:29:31.973Z,14.12
2018-04-24T08:30:32.529Z,14.15
2018-04-24T08:31:33.088Z,14.11
2018-04-24T08:32:33.647Z,14.18
2018-04-24T08:33:34.264Z,14.15
2018-04-24T08:34:34.761Z,14.18
2018-04-24T08:35:35.317Z,14.15
2018-04-24T08:36:35.878Z,14.23
2018-04-24T08:37:36.434Z,14.17
2018-04-24T08:38:37.002Z,14.10
2018-04-24T08:39:37.562Z,14.08
2018-04-24T08:40:38.129Z,14.17
2018-04-24T08:41:38.680Z,14.12
2018-04-24T08:42:39.231Z,14.17
2018-04-24T08:43:39.797Z,14.29
2018-04-24T08:44:40.350Z,14.14
2018-04-24T08:45:40.911Z,14.26
2018-04-24T08:46:41.477Z,14.12
2018-04-24T08:47:42.035Z,14.15
2018-04-24T08:48:42.600Z,14.17
2018-04-24T08:49:43.155Z,14.12
2018-04-24T08:50:43.717Z,14.25
2018-04-24T08:51:44.283Z,14.32
2018-04-24T08:52:44.845Z,14.33
2018-04-24T08:53:45.408Z,14.35
2018-04-24T08:54:45.963Z,14.47
2018-04-24T08:55:46.524Z,14.60
2018-04-24T08:56:47.087Z,14.60
2018-04-24T08:57:47.639Z,14.62
2018-04-24T08:58:48.199Z,14.65
2018-04-24T08:59:48.758Z,14.60
2018-04-24T09:00:49.317Z,14.81
2018-04-24T09:01:49.877Z,14.72
2018-04-24T09:02:50.444Z,14.63
2018-04-24T09:03:51.005Z,14.72
2018-04-24T09:04:51.768Z,14.78
2018-04-24T09:05:52.348Z,14.92
2018-04-24T09:06:52.896Z,14.92
2018-04-24T09:07:53.456Z,14.82
2018-04-24T09:08:54.022Z,14.75
2018-04-24T09:09:54.701Z,14.89
2018-04-24T09:10:55.254Z,15.03
2018-04-24T09:11:55.807Z,15.10
2018-04-24T09:12:56.369Z,15.21
2018-04-24T09:13:56.936Z,15.29
2018-04-24T09:14:57.517Z,15.25
2018-04-24T09:15:58.071Z,15.18
2018-04-24T09:16:58.643Z,15.25
2018-04-24T09:17:59.214Z,15.21
2018-04-24T09:18:59.774Z,15.26
2018-04-24T09:20:00.353Z,15.26
2018-04-24T09:21:00.912Z,15.26
2018-04-24T09:22:01.480Z,15.21
2018-04-24T09:23:02.052Z,15.37
2018-04-24T09:24:02.634Z,15.44
2018-04-24T09:25:03.203Z,15.49
2018-04-24T09:26:03.760Z,15.46
2018-04-24T09:27:04.383Z,15.49
2018-04-24T09:28:04.895Z,15.39
2018-04-24T09:29:05.452Z,15.19
2018-04-24T09:30:06.022Z,15.14
2018-04-24T09:31:06.587Z,15.31
2018-04-24T09:32:07.160Z,15.28
2018-04-24T09:33:07.735Z,15.40
2018-04-24T09:34:08.309Z,15.31
2018-04-24T09:35:08.883Z,15.50
2018-04-24T09:36:09.454Z,15.31
2018-04-24T09:37:10.007Z,15.37
2018-04-24T09:38:10.640Z,15.49
2018-04-24T09:39:11.128Z,15.47
2018-04-24T09:40:11.694Z,15.32
2018-04-24T09:41:12.259Z,15.39
2018-04-24T09:42:12.829Z,15.31
2018-04-24T09:43:13.400Z,15.49
2018-04-24T09:44:13.951Z,15.55
2018-04-24T09:45:14.515Z,15.65
2018-04-24T09:46:15.073Z,15.65
2018-04-24T09:47:15.628Z,15.82
2018-04-24T09:48:16.241Z,15.61
2018-04-24T09:49:16.789Z,15.64
2018-04-24T09:50:17.357Z,15.98
2018-04-24T09:51:17.968Z,16.15
2018-04-24T09:52:18.481Z,16.13
2018-04-24T09:53:19.031Z,16.01
2018-04-24T09:54:19.598Z,15.92
2018-04-24T09:55:20.157Z,15.77
2018-04-24T09:56:20.719Z,15.86
2018-04-24T09:57:21.282Z,16.05
2018-04-24T09:58:21.842Z,16.12
2018-04-24T09:59:22.405Z,16.10
2018-04-24T10:00:22.969Z,15.99
2018-04-24T10:01:23.532Z,16.15
2018-04-24T10:02:24.102Z,16.04
2018-04-24T10:03:24.676Z,15.84
2018-04-24T10:04:25.253Z,16.05
2018-04-24T10:05:25.798Z,16.13
2018-04-24T10:06:26.372Z,16.25
2018-04-24T10:07:26.933Z,16.07
2018-04-24T10:08:27.494Z,16.08
2018-04-24T10:09:28.063Z,16.04
2018-04-24T10:10:28.633Z,16.05
2018-04-24T10:11:29.194Z,16.15
2018-04-24T10:12:29.758Z,16.07
2018-04-24T10:13:30.349Z,16.29
2018-04-24T10:14:30.900Z,16.42
2018-04-24T10:15:31.467Z,16.27
2018-04-24T10:16:32.040Z,16.29
2018-04-24T10:17:32.616Z,16.33
2018-04-24T10:18:33.189Z,16.41
2018-04-24T10:19:33.766Z,16.41
2018-04-24T10:20:34.330Z,16.31
2018-04-24T10:21:34.885Z,16.41
2018-04-24T10:22:35.444Z,16.54
2018-04-24T10:23:36.013Z,16.56
2018-04-24T10:24:36.576Z,16.56
2018-04-24T10:25:37.143Z,16.82
2018-04-24T10:26:37.718Z,16.87
2018-04-24T10:27:38.285Z,16.98
2018-04-24T10:28:38.856Z,17.05
2018-04-24T10:29:39.423Z,17.09
2018-04-24T10:30:39.982Z,17.36
2018-04-24T10:31:40.552Z,17.39
2018-04-24T10:32:41.123Z,17.39
2018-04-24T10:33:41.689Z,17.39
2018-04-24T10:34:42.255Z,17.55
2018-04-24T10:35:42.819Z,17.74
2018-04-24T10:36:43.382Z,18.01
2018-04-24T10:37:43.947Z,18.12
2018-04-24T10:38:44.519Z,18.37
2018-04-24T10:39:45.075Z,18.40
2018-04-24T10:40:45.646Z,18.65
2018-04-24T10:41:46.219Z,19.04
2018-04-24T10:42:46.784Z,19.16
2018-04-24T10:43:47.366Z,19.47
2018-04-24T10:44:47.915Z,19.27
2018-04-24T10:45:48.489Z,19.34
2018-04-24T10:46:49.054Z,19.18
2018-04-24T10:47:49.625Z,18.98
2018-04-24T10:48:50.188Z,19.06
2018-04-24T10:49:50.754Z,19.14
2018-04-24T10:50:51.324Z,19.06
2018-04-24T10:51:51.982Z,19.14
2018-04-24T10:52:52.460Z,19.11
2018-04-24T10:53:53.032Z,19.36
2018-04-24T10:54:53.608Z,19.52
2018-04-24T10:55:54.272Z,19.44
2018-04-24T10:56:54.795Z,19.37
2018-04-24T10:57:55.362Z,19.27
2018-04-24T10:58:55.933Z,19.33
2018-04-24T10:59:56.509Z,19.06
2018-04-24T11:00:57.082Z,19.06
2018-04-24T11:01:57.641Z,19.29
2018-04-24T11:02:58.218Z,19.12
2018-04-24T11:03:58.783Z,18.74
2018-04-24T11:04:59.348Z,18.75
2018-04-24T11:05:59.919Z,18.65
2018-04-24T11:07:00.493Z,18.71
2018-04-24T11:08:01.272Z,18.99
2018-04-24T11:09:01.854Z,19.02
2018-04-24T11:10:02.426Z,19.00
2018-04-24T11:11:03.006Z,19.02
2018-04-24T11:12:03.580Z,19.04
2018-04-24T11:13:04.155Z,18.84
2018-04-24T11:14:04.936Z,18.80
2018-04-24T11:15:05.515Z,18.73
2018-04-24T11:16:06.082Z,18.63
2018-04-24T11:17:06.684Z,18.77
2018-04-24T11:18:07.223Z,18.87
2018-04-24T11:19:07.801Z,19.00
2018-04-24T11:20:08.380Z,18.81
2018-04-24T11:21:08.960Z,18.74
2018-04-24T11:22:09.540Z,18.78
2018-04-24T11:23:10.117Z,18.75
2018-04-24T11:24:10.679Z,18.68
2018-04-24T11:25:11.263Z,18.68
2018-04-24T11:26:11.843Z,18.62
2018-04-24T11:27:12.419Z,18.68
2018-04-24T11:28:12.997Z,18.84
2018-04-24T11:29:13.554Z,18.84
2018-04-24T11:30:14.157Z,18.83
2018-04-24T11:31:14.702Z,18.80
2018-04-24T11:32:15.278Z,18.62
2018-04-24T11:33:15.861Z,18.51
2018-04-24T11:34:16.474Z,18.69
2018-04-24T11:35:17.013Z,18.90
2018-04-24T11:36:17.575Z,18.73
2018-04-24T11:37:18.151Z,18.71
2018-04-24T11:38:18.716Z,18.73
2018-04-24T11:39:19.290Z,18.71
2018-04-24T11:40:19.872Z,18.53
2018-04-24T11:41:20.532Z,18.55
2018-04-24T11:42:21.025Z,18.47
2018-04-24T11:43:21.595Z,18.53
2018-04-24T11:44:22.189Z,18.43
2018-04-24T11:45:22.751Z,18.51
2018-04-24T11:46:23.318Z,18.58
2018-04-24T11:47:23.892Z,18.47
2018-04-24T11:48:24.462Z,18.47
2018-04-24T11:49:25.019Z,18.41
2018-04-24T11:50:25.585Z,18.44
2018-04-24T11:51:26.377Z,18.77
2018-04-24T11:52:26.952Z,18.41
2018-04-24T11:53:27.514Z,18.71
2018-04-24T11:54:28.082Z,18.99
2018-04-24T11:55:28.652Z,18.99
2018-04-24T11:56:29.224Z,19.04
2018-04-24T11:57:29.781Z,19.18
2018-04-24T11:58:30.355Z,19.33
2018-04-24T11:59:30.918Z,19.18
2018-04-24T12:00:31.501Z,19.36
2018-04-24T12:01:32.073Z,19.64
2018-04-24T12:02:32.691Z,19.61
2018-04-24T12:03:33.213Z,19.71
2018-04-24T12:04:33.796Z,19.98
2018-04-24T12:05:34.360Z,20.07
2018-04-24T12:06:34.937Z,20.13
2018-04-24T12:07:35.500Z,19.99
2018-04-24T12:08:36.069Z,20.03
2018-04-24T12:09:36.646Z,20.13
2018-04-24T12:10:37.213Z,20.31
2018-04-24T12:11:37.791Z,20.21
2018-04-24T12:12:38.373Z,20.24
2018-04-24T12:13:38.947Z,20.24
2018-04-24T12:14:39.641Z,20.02
2018-04-24T12:15:40.222Z,19.92
2018-04-24T12:16:40.997Z,19.71
2018-04-24T12:17:41.576Z,19.54
2018-04-24T12:18:42.153Z,19.41
2018-04-24T12:19:42.725Z,19.67
2018-04-24T12:20:43.296Z,19.69
2018-04-24T12:21:43.889Z,19.81
2018-04-24T12:22:44.450Z,19.96
2018-04-24T12:23:45.230Z,20.31
2018-04-24T12:24:45.797Z,20.36
2018-04-24T12:25:46.360Z,20.42
2018-04-24T12:26:46.955Z,20.43
2018-04-24T12:27:47.553Z,20.67
2018-04-24T12:28:48.334Z,20.82
2018-04-24T12:29:48.925Z,21.09
2018-04-24T12:30:49.512Z,21.18
2018-04-24T12:31:50.104Z,21.06
2018-04-24T12:32:50.679Z,21.07
2018-04-24T12:33:51.264Z,21.18
2018-04-24T12:34:51.828Z,20.81
2018-04-24T12:35:52.400Z,20.72
2018-04-24T12:36:52.985Z,20.81
2018-04-24T12:37:53.568Z,20.52
2018-04-24T12:38:54.242Z,20.60
2018-04-24T12:39:54.939Z,20.87
2018-04-24T12:40:55.523Z,20.81
2018-04-24T12:41:56.108Z,20.99
2018-04-24T12:42:56.691Z,20.95
2018-04-24T12:43:57.259Z,20.96
2018-04-24T12:44:57.845Z,21.00
2018-04-24T12:45:58.433Z,21.18
2018-04-24T12:46:59.018Z,21.00
2018-04-24T12:47:59.605Z,21.06
2018-04-24T12:49:00.188Z,21.14
2018-04-24T12:50:00.975Z,21.37
2018-04-24T12:51:01.560Z,21.43
2018-04-24T12:52:02.143Z,21.65
2018-04-24T12:53:02.713Z,21.91
2018-04-24T12:54:03.299Z,21.76
2018-04-24T12:55:03.871Z,21.86
2018-04-24T12:56:04.448Z,21.93
2018-04-24T12:57:05.225Z,21.86
2018-04-24T12:58:05.786Z,21.86
2018-04-24T12:59:06.372Z,21.83
2018-04-24T13:00:06.919Z,21.91
2018-04-24T13:01:07.494Z,21.98
2018-04-24T13:02:08.264Z,22.03
2018-04-24T13:03:08.850Z,21.54
2018-04-24T13:04:09.610Z,21.36
2018-04-24T13:05:10.177Z,21.17